Time;durP1;ratioP1;P1;durP2;ratioP2;P2;SDS_P1;SDS_P2;PMS_P1;PMS_P2;Temp;Humidity;BMP_temperature;BMP_pressure;BME280_temperature;BME280_humidity;BME280_pressure;Samples;Min_cycle;Max_cycle;Signal;HPM_P1;HPM_P2
2023/06/21 00:01:31;;;;;;;2.93;2.63;;;20.00;99.90;;;;;;5074875;28;20170;-78
2023/06/21 00:04:00;;;;;;;4.47;3.10;;;20.00;99.90;;;;;;5073150;28;20203;-77
2023/06/21 00:06:28;;;;;;;3.80;2.93;;;19.90;99.90;;;;;;5074641;28;20675;-78
2023/06/21 00:08:55;;;;;;;7.57;3.83;;;19.80;99.90;;;;;;5074878;28;20209;-78
2023/06/21 00:11:21;;;;;;;3.40;3.10;;;19.80;99.90;;;;;;5074182;28;20728;-77
2023/06/21 00:13:46;;;;;;;3.37;2.90;;;19.70;99.90;;;;;;5089973;28;20220;-77
2023/06/21 00:16:14;;;;;;;3.60;3.30;;;19.60;99.90;;;;;;5074301;28;20645;-78
2023/06/21 00:18:39;;;;;;;4.43;3.40;;;19.50;99.90;;;;;;5074619;28;20167;-78
2023/06/21 00:21:05;;;;;;;5.20;3.43;;;19.50;99.90;;;;;;5072897;28;20595;-77
2023/06/21 00:23:30;;;;;;;5.30;3.20;;;19.50;99.90;;;;;;5073911;28;20642;-78
2023/06/21 00:25:56;;;;;;;4.80;3.13;;;19.60;99.90;;;;;;5074236;28;20191;-78
2023/06/21 00:28:22;;;;;;;3.63;3.10;;;19.50;99.90;;;;;;5089504;28;20206;-78
2023/06/21 00:30:47;;;;;;;4.20;3.67;;;19.50;99.90;;;;;;5073945;28;20179;-76
2023/06/21 00:33:13;;;;;;;6.27;3.40;;;19.50;99.90;;;;;;5074044;28;20622;-78
2023/06/21 00:35:38;;;;;;;4.33;3.57;;;19.50;99.90;;;;;;5073833;28;20167;-77
2023/06/21 00:38:05;;;;;;;4.17;3.67;;;19.50;99.90;;;;;;5074268;28;20634;-78
2023/06/21 00:40:31;;;;;;;8.00;3.70;;;19.50;99.90;;;;;;5074024;28;20492;-78
2023/06/21 00:42:57;;;;;;;4.23;3.83;;;19.50;99.90;;;;;;5074189;28;20190;-78
2023/06/21 00:45:22;;;;;;;4.33;3.60;;;19.50;99.90;;;;;;5073836;28;20617;-79
2023/06/21 00:47:49;;;;;;;4.47;4.07;;;19.50;99.90;;;;;;5089352;28;20205;-78
2023/06/21 00:50:15;;;;;;;6.77;3.83;;;19.40;99.90;;;;;;5073671;28;20175;-78
2023/06/21 00:52:43;;;;;;;5.63;3.93;;;19.50;99.90;;;;;;5073901;28;20236;-77
2023/06/21 00:55:08;;;;;;;4.33;3.87;;;19.40;99.90;;;;;;5072260;28;20539;-77
2023/06/21 00:57:35;;;;;;;4.70;3.20;;;19.40;99.90;;;;;;5073808;28;20208;-77
2023/06/21 01:00:01;;;;;;;4.30;3.53;;;19.50;99.90;;;;;;5073404;28;20171;-77
2023/06/21 01:02:27;;;;;;;3.77;3.40;;;19.40;99.90;;;;;;5073496;28;20216;-77
2023/06/21 01:04:52;;;;;;;4.90;3.70;;;19.40;99.90;;;;;;5072079;28;20638;-76
2023/06/21 01:07:28;;;;;;;4.43;3.70;;;19.30;99.90;;;;;;5073719;28;20175;-77
2023/06/21 01:10:10;;;;;;;6.03;3.40;;;19.30;99.90;;;;;;5073408;28;20645;-78
2023/06/21 01:12:55;;;;;;;5.73;3.90;;;19.30;99.90;;;;;;5072001;28;20289;-77
2023/06/21 01:15:26;;;;;;;4.33;3.43;;;19.20;99.90;;;;;;5073475;28;20155;-78
2023/06/21 01:17:53;;;;;;;4.90;3.67;;;19.20;99.90;;;;;;5073902;28;20159;-78
2023/06/21 01:20:28;;;;;;;5.00;4.10;;;19.10;99.90;;;;;;5073760;28;20186;-77
2023/06/21 01:23:12;;;;;;;6.90;4.53;;;19.10;99.90;;;;;;5089325;28;20226;-77
2023/06/21 01:26:03;;;;;;;7.93;4.30;;;19.10;99.90;;;;;;5073766;28;20318;-77
2023/06/21 01:29:06;;;;;;;4.53;4.13;;;19.10;99.90;;;;;;5088940;28;20183;-77
2023/06/21 01:31:32;;;;;;;4.57;4.10;;;19.10;99.90;;;;;;5073997;28;20191;-78
2023/06/21 01:33:59;;;;;;;4.93;3.90;;;19.10;99.90;;;;;;5077935;28;20185;-76
2023/06/21 01:36:25;;;;;;;4.27;3.60;;;19.10;99.90;;;;;;5083566;28;20248;-77
2023/06/21 01:38:57;;;;;;;4.60;4.17;;;19.10;99.90;;;;;;5080959;28;20175;-77
2023/06/21 01:41:23;;;;;;;4.80;3.73;;;19.10;99.90;;;;;;5073214;28;20712;-78
2023/06/21 01:43:49;;;;;;;5.07;3.57;;;19.10;99.90;;;;;;5073176;28;20186;-77
2023/06/21 01:46:16;;;;;;;4.63;3.67;;;19.10;99.90;;;;;;5071615;28;20224;-77
2023/06/21 01:48:43;;;;;;;5.87;4.20;;;19.10;99.90;;;;;;5072879;28;20178;-77
2023/06/21 01:51:10;;;;;;;4.20;3.80;;;19.00;99.90;;;;;;5072958;28;20187;-77
2023/06/21 01:53:37;;;;;;;4.60;4.10;;;19.10;99.90;;;;;;5073571;28;20277;-78
2023/06/21 01:56:11;;;;;;;5.40;3.87;;;19.00;99.90;;;;;;5073108;28;20160;-78
2023/06/21 01:58:36;;;;;;;5.10;4.30;;;19.00;99.90;;;;;;5073179;28;20254;-77
2023/06/21 02:01:03;;;;;;;8.87;3.80;;;19.00;99.90;;;;;;5073141;28;20199;-77
2023/06/21 02:03:30;;;;;;;4.00;3.60;;;18.90;99.90;;;;;;5075038;28;20190;-77
2023/06/21 02:05:59;;;;;;;4.20;3.80;;;18.90;99.90;;;;;;5076959;28;20163;-77
2023/06/21 02:08:25;;;;;;;5.07;4.53;;;18.70;99.90;;;;;;5092614;28;20191;-77
2023/06/21 02:10:51;;;;;;;4.07;3.50;;;18.80;99.90;;;;;;5077479;28;20174;-77
2023/06/21 02:13:17;;;;;;;4.57;3.93;;;18.70;99.90;;;;;;5077363;28;20183;-77
2023/06/21 02:15:42;;;;;;;7.60;4.30;;;18.70;99.90;;;;;;5077705;28;20250;-77
2023/06/21 02:18:12;;;;;;;5.40;4.20;;;18.70;99.90;;;;;;5076975;28;20221;-78
2023/06/21 02:20:38;;;;;;;5.43;4.20;;;18.60;99.90;;;;;;5075340;28;20167;-77
2023/06/21 02:23:04;;;;;;;4.37;3.87;;;18.60;99.90;;;;;;5076992;28;20572;-77
2023/06/21 02:25:30;;;;;;;5.40;3.93;;;18.60;99.90;;;;;;5076855;28;20190;-78
2023/06/21 02:27:55;;;;;;;5.03;4.43;;;18.60;99.90;;;;;;5092131;28;20175;-77
2023/06/21 02:30:22;;;;;;;4.77;4.23;;;18.70;99.90;;;;;;5076681;28;20248;-77
2023/06/21 02:32:47;;;;;;;5.27;4.37;;;18.60;99.90;;;;;;5076670;28;20202;-77
2023/06/21 02:35:13;;;;;;;4.60;4.13;;;18.60;99.90;;;;;;5076335;28;20614;-78
2023/06/21 02:37:39;;;;;;;5.07;3.83;;;18.60;99.90;;;;;;5076666;28;20644;-78
2023/06/21 02:40:11;;;;;;;6.17;3.97;;;18.60;99.90;;;;;;5076663;28;20201;-78
2023/06/21 02:42:39;;;;;;;4.60;4.20;;;18.50;99.90;;;;;;5074874;28;20187;-77
2023/06/21 02:45:06;;;;;;;5.40;4.17;;;18.50;99.90;;;;;;5091913;28;20178;-78
2023/06/21 02:47:31;;;;;;;6.60;3.90;;;18.50;99.90;;;;;;5076069;28;20610;-77
2023/06/21 02:49:57;;;;;;;6.10;3.60;;;18.50;99.90;;;;;;5076276;28;20190;-77
2023/06/21 02:52:22;;;;;;;4.17;3.77;;;18.40;99.90;;;;;;5074824;28;20195;-77
2023/06/21 02:54:48;;;;;;;7.00;4.30;;;18.40;99.90;;;;;;5091421;28;20182;-77
2023/06/21 02:57:13;;;;;;;4.53;3.57;;;18.40;99.90;;;;;;5076115;28;20627;-77
2023/06/21 02:59:39;;;;;;;4.23;3.83;;;18.30;99.90;;;;;;5076842;28;20166;-78
2023/06/21 03:02:05;;;;;;;4.77;3.90;;;18.40;99.90;;;;;;5090508;28;20183;-77
2023/06/21 03:04:30;;;;;;;5.93;4.20;;;18.30;99.90;;;;;;5074627;28;20229;-76
2023/06/21 03:06:56;;;;;;;5.17;3.93;;;18.30;99.90;;;;;;5076038;28;20174;-77
2023/06/21 03:09:23;;;;;;;4.80;3.73;;;18.30;99.90;;;;;;5076131;28;20167;-77
2023/06/21 03:11:48;;;;;;;4.00;3.60;;;18.30;99.90;;;;;;5075681;28;20194;-76
2023/06/21 03:14:14;;;;;;;4.53;3.70;;;18.30;99.90;;;;;;5074123;28;20199;-78
2023/06/21 03:16:41;;;;;;;5.70;4.30;;;18.30;99.90;;;;;;5076222;28;20331;-78
2023/06/21 03:19:08;;;;;;;5.23;4.20;;;18.10;99.90;;;;;;5075578;28;20167;-77
2023/06/21 03:21:34;;;;;;;8.47;4.67;;;18.10;99.90;;;;;;5075773;28;20171;-78
2023/06/21 03:23:59;;;;;;;4.97;4.27;;;18.10;99.90;;;;;;5074170;28;20685;-77
2023/06/21 03:26:25;;;;;;;7.23;3.87;;;18.10;99.90;;;;;;5075600;28;20182;-77
2023/06/21 03:28:50;;;;;;;5.63;4.37;;;18.10;99.90;;;;;;5075450;28;20170;-77
2023/06/21 03:31:19;;;;;;;5.00;4.50;;;18.10;99.90;;;;;;5074092;28;20202;-78
2023/06/21 03:33:45;;;;;;;10.10;4.50;;;18.10;99.90;;;;;;5075581;28;20187;-78
2023/06/21 03:36:10;;;;;;;5.20;4.07;;;18.00;99.90;;;;;;5075469;28;20555;-78
2023/06/21 03:38:36;;;;;;;4.30;3.90;;;18.00;99.90;;;;;;5075267;28;20630;-77
2023/06/21 03:41:01;;;;;;;6.73;4.40;;;18.00;99.90;;;;;;5075524;28;20171;-78
2023/06/21 03:43:27;;;;;;;5.43;4.90;;;18.00;99.90;;;;;;5075016;28;20207;-77
2023/06/21 03:45:52;;;;;;;5.30;4.30;;;18.00;99.90;;;;;;5075383;28;20162;-77
2023/06/21 03:48:18;;;;;;;6.40;4.90;;;18.00;99.90;;;;;;5073930;28;20171;-78
2023/06/21 03:50:44;;;;;;;9.80;5.17;;;18.00;99.90;;;;;;5073843;28;20258;-77
2023/06/21 03:53:09;;;;;;;5.93;4.37;;;18.00;99.90;;;;;;5074878;28;20287;-77
2023/06/21 03:55:37;;;;;;;6.90;4.10;;;18.00;99.90;;;;;;5075579;28;20171;-77
2023/06/21 03:58:03;;;;;;;5.50;4.63;;;18.00;99.90;;;;;;5075016;28;20260;-77
2023/06/21 04:00:29;;;;;;;6.30;4.10;;;18.00;99.90;;;;;;5073726;28;20209;-77
2023/06/21 04:02:54;;;;;;;6.43;4.20;;;18.00;99.90;;;;;;5074803;28;20514;-77
2023/06/21 04:05:20;;;;;;;6.47;4.23;;;18.00;99.90;;;;;;5073882;28;20179;-77
2023/06/21 04:07:46;;;;;;;4.60;4.13;;;18.00;99.90;;;;;;5074777;28;20662;-77
2023/06/21 04:10:13;;;;;;;5.57;4.50;;;18.00;99.90;;;;;;5074723;28;20202;-77
2023/06/21 04:12:39;;;;;;;4.93;4.43;;;18.00;99.90;;;;;;5074761;28;20191;-78
2023/06/21 04:15:05;;;;;;;4.53;4.13;;;18.00;99.90;;;;;;5074668;28;20171;-77
2023/06/21 04:17:31;;;;;;;7.17;4.83;;;18.00;99.90;;;;;;5074645;28;20266;-77
2023/06/21 04:19:57;;;;;;;4.43;4.03;;;18.00;99.90;;;;;;5073221;28;20253;-77
2023/06/21 04:22:24;;;;;;;6.27;4.30;;;18.00;99.90;;;;;;5074405;28;20710;-78
2023/06/21 04:24:51;;;;;;;4.87;4.13;;;18.00;99.90;;;;;;5074008;28;20182;-77
2023/06/21 04:27:17;;;;;;;4.37;3.90;;;18.00;99.90;;;;;;5074831;28;20171;-77
2023/06/21 04:29:42;;;;;;;4.47;4.07;;;18.10;99.90;;;;;;5072746;28;20561;-77
2023/06/21 04:32:08;;;;;;;5.43;4.00;;;18.10;99.90;;;;;;5073082;28;20195;-77
2023/06/21 04:34:35;;;;;;;4.90;4.40;;;18.20;99.90;;;;;;5074456;28;20300;-77
2023/06/21 04:37:05;;;;;;;7.77;4.20;;;18.20;99.90;;;;;;5074387;28;20167;-78
2023/06/21 04:39:31;;;;;;;6.23;4.50;;;18.30;99.90;;;;;;5073000;28;20250;-77
2023/06/21 04:41:58;;;;;;;7.20;5.03;;;18.20;99.90;;;;;;5073942;28;20178;-77
2023/06/21 04:44:24;;;;;;;6.93;4.80;;;18.30;99.90;;;;;;5073428;28;20183;-77
2023/06/21 04:46:50;;;;;;;7.67;5.30;;;18.40;99.90;;;;;;5073576;28;20178;-76
2023/06/21 04:49:17;;;;;;;7.53;5.13;;;18.40;99.90;;;;;;5073734;28;20178;-77
2023/06/21 04:51:43;;;;;;;8.27;4.63;;;18.50;99.90;;;;;;5074014;28;20248;-77
2023/06/21 04:54:09;;;;;;;5.77;4.43;;;18.50;99.90;;;;;;5074194;28;20190;-77
2023/06/21 04:56:35;;;;;;;6.13;4.83;;;18.60;99.90;;;;;;5074086;28;20174;-78
2023/06/21 04:59:03;;;;;;;5.30;4.70;;;18.70;99.90;;;;;;5074073;28;20191;-78
2023/06/21 05:01:32;;;;;;;6.17;5.00;;;18.70;99.90;;;;;;5073034;28;20170;-78
2023/06/21 05:03:58;;;;;;;8.57;4.43;;;18.80;99.90;;;;;;5082958;28;20199;-79
2023/06/21 05:06:25;;;;;;;9.47;4.77;;;18.90;99.90;;;;;;5091321;28;20220;-77
2023/06/21 05:08:51;;;;;;;5.37;4.87;;;18.90;99.90;;;;;;5091336;28;20266;-79
2023/06/21 05:11:18;;;;;;;6.90;5.73;;;19.00;99.90;;;;;;5075116;28;20659;-79
2023/06/21 05:13:43;;;;;;;6.87;5.40;;;19.10;99.90;;;;;;5073389;28;20191;-79
2023/06/21 05:16:09;;;;;;;6.50;5.90;;;19.10;99.90;;;;;;5075541;28;20242;-79
2023/06/21 05:18:35;;;;;;;9.53;7.53;;;19.20;99.90;;;;;;5074972;28;20171;-79
2023/06/21 05:21:01;;;;;;;11.40;7.47;;;19.30;99.90;;;;;;5074015;28;20182;-78
2023/06/21 05:23:26;;;;;;;8.43;7.00;;;19.40;99.90;;;;;;5075267;28;20191;-78
2023/06/21 05:25:52;;;;;;;7.20;6.50;;;19.50;99.90;;;;;;5091059;28;20191;-79
2023/06/21 05:28:17;;;;;;;8.43;7.53;;;19.60;99.90;;;;;;5075308;28;20519;-79
2023/06/21 05:30:43;;;;;;;12.60;7.00;;;19.70;99.90;;;;;;5073862;28;20228;-79
2023/06/21 05:33:09;;;;;;;9.23;7.27;;;19.80;99.90;;;;;;5073249;28;20207;-79
2023/06/21 05:35:34;;;;;;;8.70;7.03;;;19.80;99.90;;;;;;5074002;28;20178;-79
2023/06/21 05:38:00;;;;;;;9.33;7.43;;;19.90;99.90;;;;;;5076893;28;20178;-79
2023/06/21 05:40:25;;;;;;;10.33;7.43;;;19.90;99.90;;;;;;5073861;28;20189;-79
2023/06/21 05:42:51;;;;;;;14.70;7.33;;;20.00;99.90;;;;;;5076941;28;20266;-79
2023/06/21 05:45:17;;;;;;;10.13;7.10;;;20.00;99.90;;;;;;5075635;28;20607;-79
2023/06/21 05:47:43;;;;;;;9.20;7.27;;;20.10;99.90;;;;;;5074702;28;20484;-81
2023/06/21 05:50:09;;;;;;;8.67;7.03;;;20.10;99.90;;;;;;5073295;28;20171;-79
2023/06/21 05:52:35;;;;;;;9.20;8.10;;;20.20;99.90;;;;;;5073885;28;20203;-77
2023/06/21 05:55:00;;;;;;;11.37;7.63;;;20.30;99.90;;;;;;5074676;28;20170;-77
2023/06/21 05:57:26;;;;;;;9.90;7.00;;;20.30;99.90;;;;;;5072562;28;20261;-78
2023/06/21 05:59:53;;;;;;;9.10;7.70;;;20.40;99.90;;;;;;5072699;28;20580;-78
2023/06/21 06:02:19;;;;;;;12.70;7.63;;;20.40;99.90;;;;;;5074352;28;20167;-80
2023/06/21 06:04:44;;;;;;;9.30;8.37;;;20.50;99.90;;;;;;5073766;28;20194;-81
2023/06/21 06:07:12;;;;;;;11.77;7.97;;;20.50;99.90;;;;;;5074633;28;20253;-81
2023/06/21 06:09:38;;;;;;;9.60;7.90;;;20.50;99.90;;;;;;5074375;28;20167;-78
2023/06/21 06:12:05;;;;;;;10.33;7.90;;;20.60;99.90;;;;;;5073792;28;20221;-79
2023/06/21 06:14:31;;;;;;;10.93;8.13;;;20.60;99.90;;;;;;5073121;28;20626;-81
2023/06/21 06:16:56;;;;;;;11.30;8.77;;;20.70;99.90;;;;;;5074440;28;20195;-81
2023/06/21 06:19:22;;;;;;;9.27;8.37;;;20.80;99.90;;;;;;5073091;28;20546;-78
2023/06/21 06:21:47;;;;;;;9.63;8.63;;;20.80;99.90;;;;;;5074683;28;20531;-80
2023/06/21 06:24:13;;;;;;;14.90;8.83;;;21.00;99.90;;;;;;5074074;28;20194;-78
2023/06/21 06:26:38;;;;;;;10.70;7.60;;;21.10;99.90;;;;;;5072604;28;20182;-78
2023/06/21 06:29:04;;;;;;;11.70;8.43;;;21.10;99.90;;;;;;5074541;28;20277;-80
2023/06/21 06:31:30;;;;;;;10.23;8.73;;;21.00;99.90;;;;;;5073211;28;20341;-80
2023/06/21 06:33:56;;;;;;;10.37;8.23;;;21.10;99.90;;;;;;5074578;28;20324;-80
2023/06/21 06:36:22;;;;;;;12.20;8.60;;;21.10;99.90;;;;;;5075051;28;20223;-80
2023/06/21 06:38:52;;;;;;;14.40;8.90;;;21.20;99.90;;;;;;5074727;28;20171;-79
2023/06/21 06:41:18;;;;;;;13.00;8.20;;;21.30;99.90;;;;;;5074704;28;20639;-79
2023/06/21 06:43:44;;;;;;;11.43;7.90;;;21.30;99.90;;;;;;5073281;28;20191;-79
2023/06/21 06:46:10;;;;;;;13.60;8.17;;;21.20;99.90;;;;;;5075074;28;20171;-80
2023/06/21 06:48:35;;;;;;;19.20;8.40;;;21.30;99.90;;;;;;5076838;28;20179;-80
2023/06/21 06:51:01;;;;;;;11.33;8.20;;;21.30;99.90;;;;;;5078296;28;20312;-80
2023/06/21 06:53:27;;;;;;;11.37;7.80;;;21.40;99.90;;;;;;5078464;28;20250;-79
2023/06/21 06:55:54;;;;;;;14.23;7.80;;;21.50;99.90;;;;;;5077035;28;20179;-79
2023/06/21 06:58:21;;;;;;;9.67;8.60;;;21.50;99.90;;;;;;5076266;28;20175;-80
2023/06/21 07:00:47;;;;;;;12.90;9.10;;;21.50;99.90;;;;;;5077796;28;20609;-79
2023/06/21 07:03:12;;;;;;;11.47;9.13;;;21.60;99.90;;;;;;5078050;28;20195;-79
2023/06/21 07:05:46;;;;;;;11.07;8.97;;;21.60;99.90;;;;;;5076755;28;20564;-79
2023/06/21 07:08:12;;;;;;;10.50;8.73;;;21.60;99.90;;;;;;5077921;28;20179;-79
2023/06/21 07:10:38;;;;;;;11.73;9.23;;;21.70;99.90;;;;;;5078437;28;20175;-80
2023/06/21 07:13:04;;;;;;;12.40;9.47;;;21.70;99.90;;;;;;5077866;28;20210;-79
2023/06/21 07:15:30;;;;;;;15.57;8.77;;;21.80;99.90;;;;;;5077824;28;20308;-79
2023/06/21 07:17:55;;;;;;;12.80;8.90;;;21.80;99.90;;;;;;5077821;28;20178;-79
2023/06/21 07:20:21;;;;;;;11.17;9.30;;;21.80;99.90;;;;;;5077751;28;20726;-77
2023/06/21 07:22:47;;;;;;;16.47;10.50;;;21.90;99.90;;;;;;5078027;28;20281;-79
2023/06/21 07:25:12;;;;;;;13.03;9.27;;;21.90;99.90;;;;;;5076420;28;20198;-79
2023/06/21 07:27:38;;;;;;;12.20;9.60;;;21.90;99.90;;;;;;5078280;28;20194;-78
2023/06/21 07:30:05;;;;;;;12.67;8.83;;;22.00;99.90;;;;;;5078004;28;20630;-80
2023/06/21 07:32:30;;;;;;;11.97;9.73;;;21.90;99.90;;;;;;5077679;28;20251;-80
2023/06/21 07:34:58;;;;;;;13.80;8.80;;;22.00;99.90;;;;;;5076037;28;20246;-80
2023/06/21 07:37:23;;;;;;;14.17;9.37;;;22.00;99.90;;;;;;5076112;28;20175;-80
2023/06/21 07:39:49;;;;;;;9.70;8.70;;;22.00;99.90;;;;;;5077609;28;20179;-80
2023/06/21 07:42:14;;;;;;;10.47;8.53;;;22.00;99.90;;;;;;5077554;28;20171;-81
2023/06/21 07:44:40;;;;;;;11.03;7.57;;;22.10;99.90;;;;;;5075885;28;20674;-79
2023/06/21 07:47:06;;;;;;;9.93;8.27;;;22.20;99.90;;;;;;5077780;28;20179;-79
2023/06/21 07:49:31;;;;;;;11.57;8.03;;;22.30;95.00;;;;;;5075724;28;20178;-79
2023/06/21 07:51:57;;;;;;;11.20;8.33;;;22.40;87.30;;;;;;5075878;28;20206;-79
2023/06/21 07:54:23;;;;;;;9.47;7.53;;;22.40;18.10;;;;;;5077603;28;20191;-79
2023/06/21 07:56:49;;;;;;;10.20;8.50;;;22.40;14.20;;;;;;5077493;28;20163;-79
2023/06/21 07:59:14;;;;;;;8.70;7.90;;;22.40;1.00;;;;;;5075499;28;20190;-80
2023/06/21 08:01:40;;;;;;;10.50;8.17;;;22.50;16.00;;;;;;5075333;28;20175;-79
2023/06/21 08:04:05;;;;;;;12.20;8.50;;;22.60;25.30;;;;;;5075577;28;20210;-79
2023/06/21 08:06:31;;;;;;;11.00;8.77;;;22.60;11.80;;;;;;5077008;28;20186;-78
2023/06/21 08:08:56;;;;;;;10.57;8.97;;;22.80;17.20;;;;;;5076940;28;20179;-80
2023/06/21 08:11:22;;;;;;;13.17;8.37;;;22.90;20.50;;;;;;5076181;28;20624;-79
2023/06/21 08:13:47;;;;;;;10.87;7.10;;;23.00;1.00;;;;;;5077017;28;20199;-80
2023/06/21 08:16:13;;;;;;;7.27;6.57;;;23.00;1.00;;;;;;5076603;28;20228;-80
2023/06/21 08:18:38;;;;;;;8.73;7.70;;;22.90;1.00;;;;;;5076437;28;20240;-80
2023/06/21 08:21:05;;;;;;;7.77;6.93;;;22.80;1.00;;;;;;5075845;28;20206;-79
2023/06/21 08:23:31;;;;;;;6.63;5.93;;;22.80;1.00;;;;;;5075593;28;20199;-79
2023/06/21 08:25:56;;;;;;;6.17;5.57;;;22.90;1.00;;;;;;5077836;28;20198;-78
2023/06/21 08:28:22;;;;;;;6.93;5.67;;;22.90;1.00;;;;;;5078427;28;20171;-79
2023/06/21 08:30:48;;;;;;;6.20;5.57;;;23.00;1.00;;;;;;5078484;28;20194;-80
2023/06/21 08:33:13;;;;;;;9.50;6.47;;;23.40;1.00;;;;;;5077088;28;20244;-80
2023/06/21 08:35:39;;;;;;;9.00;6.93;;;23.40;1.00;;;;;;5079231;28;20278;-80
2023/06/21 08:38:04;;;;;;;7.13;6.43;;;23.40;1.00;;;;;;5089912;28;20190;-78
2023/06/21 08:40:32;;;;;;;7.40;6.63;;;23.60;1.00;;;;;;5096641;28;20227;-79
2023/06/21 08:42:59;;;;;;;7.83;7.13;;;23.70;1.00;;;;;;5090004;28;20202;-80
2023/06/21 08:45:24;;;;;;;7.93;7.03;;;23.60;1.00;;;;;;5074833;28;20182;-79
2023/06/21 08:47:53;;;;;;;10.03;7.13;;;23.60;1.00;;;;;;5075872;28;20180;-79
2023/06/21 08:50:21;;;;;;;9.67;7.80;;;23.60;1.00;;;;;;5076343;28;20177;-80
2023/06/21 08:52:48;;;;;;;8.63;7.77;;;23.50;1.00;;;;;;5075900;28;20214;-78
2023/06/21 08:55:15;;;;;;;7.23;6.53;;;23.50;1.00;;;;;;5076138;28;20673;-79
2023/06/21 08:57:53;;;;;;;7.97;7.17;;;23.50;1.00;;;;;;5074527;28;20664;-79
2023/06/21 09:00:22;;;;;;;8.47;7.30;;;23.90;1.00;;;;;;5075022;28;20178;-79
2023/06/21 09:02:54;;;;;;;9.13;7.23;;;23.90;1.00;;;;;;5075918;28;20235;-80
2023/06/21 09:05:47;;;;;;;6.07;5.47;;;24.00;1.00;;;;;;5075906;28;20160;-79
2023/06/21 09:08:15;;;;;;;6.37;5.77;;;24.20;1.00;;;;;;5076261;28;20190;-80
2023/06/21 09:10:43;;;;;;;7.93;6.27;;;24.30;1.00;;;;;;5075959;28;20181;-80
2023/06/21 09:13:10;;;;;;;7.47;5.93;;;24.30;1.00;;;;;;5074935;28;20559;-78
2023/06/21 09:15:37;;;;;;;7.63;5.83;;;24.40;1.00;;;;;;5074213;28;20179;-80
2023/06/21 09:18:03;;;;;;;7.10;6.40;;;24.50;1.00;;;;;;5075642;28;20232;-79
2023/06/21 09:20:29;;;;;;;9.23;6.10;;;24.40;1.00;;;;;;5076421;28;20179;-80
2023/06/21 09:22:57;;;;;;;7.07;5.73;;;24.40;1.00;;;;;;5077500;28;20199;-79
2023/06/21 09:25:23;;;;;;;11.37;6.90;;;24.40;1.00;;;;;;5088950;28;20206;-77
2023/06/21 09:27:48;;;;;;;8.17;6.50;;;24.30;1.00;;;;;;5094179;28;20163;-79
2023/06/21 09:30:14;;;;;;;7.03;6.37;;;24.40;1.00;;;;;;5089798;28;20222;-80
2023/06/21 09:32:41;;;;;;;7.07;6.38;;;24.50;1.00;;;;;;5089078;28;20229;-80
2023/06/21 09:35:07;;;;;;;7.20;6.53;;;24.50;1.00;;;;;;5087855;28;20225;-80
2023/06/21 09:37:34;;;;;;;8.83;6.57;;;24.50;99.90;;;;;;5092200;28;20170;-79
2023/06/21 09:40:01;;;;;;;7.90;6.57;;;24.20;1.00;;;;;;5093739;28;20174;-80
2023/06/21 09:42:27;;;;;;;9.63;6.77;;;24.20;1.00;;;;;;5092072;28;20186;-79
2023/06/21 09:44:53;;;;;;;9.43;7.27;;;24.10;1.00;;;;;;5090751;28;20175;-78
2023/06/21 09:47:19;;;;;;;9.70;7.33;;;23.90;1.00;;;;;;5090400;28;20639;-79
2023/06/21 09:49:49;;;;;;;12.53;7.50;;;23.90;1.00;;;;;;5091470;28;20175;-79
2023/06/21 09:52:17;;;;;;;8.87;7.27;;;23.90;1.00;;;;;;5097318;28;20187;-79
2023/06/21 09:54:43;;;;;;;9.23;8.00;;;24.10;1.00;;;;;;5088487;28;20558;-79
2023/06/21 09:57:09;;;;;;;8.07;7.33;;;24.30;1.00;;;;;;5081987;28;20171;-80
2023/06/21 09:59:40;;;;;;;8.27;7.27;;;24.20;1.00;;;;;;5075366;28;20189;-79
2023/06/21 10:02:06;;;;;;;9.33;6.87;;;24.20;1.00;;;;;;5075509;28;20230;-80
2023/06/21 10:04:42;;;;;;;8.10;7.30;;;24.30;1.00;;;;;;5075086;28;20206;-80
2023/06/21 10:07:08;;;;;;;10.43;6.90;;;24.50;99.90;;;;;;5075537;28;20170;-78
2023/06/21 10:09:37;;;;;;;8.00;6.20;;;24.60;99.90;;;;;;5075128;28;20202;-78
2023/06/21 10:12:09;;;;;;;7.73;5.90;;;24.70;99.90;;;;;;5074745;28;20206;-78
2023/06/21 10:14:34;;;;;;;6.90;5.63;;;24.90;99.90;;;;;;5074753;28;20213;-79
2023/06/21 10:17:01;;;;;;;7.10;6.25;;;25.00;99.90;;;;;;5073205;28;20634;-79
2023/06/21 10:19:31;;;;;;;7.25;5.95;;;25.00;99.90;;;;;;5075340;28;20266;-79
2023/06/21 10:22:06;;;;;;;7.53;6.72;;;25.00;99.90;;;;;;5075135;28;20195;-79
2023/06/21 10:24:35;;;;;;;6.90;6.25;;;24.90;99.90;;;;;;5076785;28;20218;-78
2023/06/21 10:27:00;;;;;;;7.30;5.88;;;24.90;99.90;;;;;;5077488;28;20661;-80
2023/06/21 10:29:29;;;;;;;8.40;6.57;;;24.90;99.90;;;;;;5076100;28;20182;-78
2023/06/21 10:31:58;;;;;;;7.83;6.77;;;24.60;99.90;;;;;;5077226;28;20348;-78
2023/06/21 10:34:27;;;;;;;7.90;5.90;;;24.50;99.90;;;;;;5077055;28;20548;-78
2023/06/21 10:37:02;;;;;;;6.40;5.80;;;24.70;99.90;;;;;;5077281;28;20547;-78
2023/06/21 10:39:33;;;;;;;9.30;6.13;;;24.90;99.90;;;;;;5077401;28;20150;-78
2023/06/21 10:41:59;;;;;;;6.47;5.85;;;25.00;99.90;;;;;;5077677;28;20165;-78
2023/06/21 10:44:28;;;;;;;6.73;5.10;;;25.30;99.90;;;;;;5077360;28;20590;-78
2023/06/21 10:46:55;;;;;;;7.50;5.10;;;25.20;99.90;;;;;;5076005;28;20535;-78
2023/06/21 10:49:21;;;;;;;8.15;5.72;;;25.20;99.90;;;;;;5076739;28;20179;-78
2023/06/21 10:51:48;;;;;;;6.43;5.82;;;25.20;99.90;;;;;;5076827;28;20205;-78
2023/06/21 10:54:15;;;;;;;7.17;5.73;;;25.20;99.90;;;;;;5076814;28;20575;-78
2023/06/21 10:56:41;;;;;;;6.93;6.22;;;25.20;99.90;;;;;;5077380;28;20175;-78
2023/06/21 10:59:08;;;;;;;9.20;6.50;;;25.40;99.90;;;;;;5077222;28;20174;-79
2023/06/21 11:01:35;;;;;;;6.40;5.50;;;25.20;99.90;;;;;;5077562;28;20179;-78
2023/06/21 11:04:00;;;;;;;6.88;4.50;;;24.90;99.90;;;;;;5075680;28;20630;-78
2023/06/21 11:06:28;;;;;;;6.47;4.97;;;24.90;99.90;;;;;;5077297;28;20177;-78
2023/06/21 11:09:05;;;;;;;6.87;4.67;;;25.00;99.90;;;;;;5075570;28;20178;-78
2023/06/21 11:11:33;;;;;;;6.10;5.45;;;25.00;99.90;;;;;;5076945;28;20198;-79
2023/06/21 11:14:05;;;;;;;5.95;5.35;;;25.20;99.90;;;;;;5076543;28;20197;-77
2023/06/21 11:16:36;;;;;;;4.87;4.37;;;25.30;99.90;;;;;;5076972;28;20175;-78
2023/06/21 11:19:10;;;;;;;4.85;4.28;;;25.30;60.60;;;;;;5076885;28;20175;-77
2023/06/21 11:21:41;;;;;;;5.28;4.78;;;25.30;99.90;;;;;;5075481;28;20225;-78
2023/06/21 11:24:10;;;;;;;5.07;4.60;;;25.50;99.90;;;;;;5075837;28;20198;-78
2023/06/21 11:27:02;;;;;;;5.57;4.60;;;25.50;90.60;;;;;;5076892;28;20174;-77
2023/06/21 11:29:37;;;;;;;5.72;4.60;;;25.60;72.00;;;;;;5076141;28;20635;-78
2023/06/21 11:32:13;;;;;;;4.78;4.38;;;25.60;88.50;;;;;;5076242;28;20205;-78
2023/06/21 11:34:59;;;;;;;7.15;4.72;;;25.70;1.00;;;;;;5075796;28;20197;-78
2023/06/21 11:37:30;;;;;;;5.07;4.40;;;25.60;82.50;;;;;;5075093;28;20171;-77
2023/06/21 11:40:05;;;;;;;4.97;4.43;;;25.80;38.70;;;;;;5076774;28;20179;-78
2023/06/21 11:42:49;;;;;;;4.25;3.80;;;25.90;6.50;;;;;;5076245;28;20187;-78
2023/06/21 11:45:20;;;;;;;5.72;4.13;;;26.00;99.90;;;;;;5074985;28;20185;-78
2023/06/21 11:48:08;;;;;;;3.88;3.53;;;26.30;32.60;;;;;;5074590;28;20215;-77
2023/06/21 11:50:40;;;;;;;4.72;3.63;;;26.30;1.00;;;;;;5076671;28;20586;-78
2023/06/21 11:53:13;;;;;;;5.32;3.72;;;26.30;1.00;;;;;;5076560;28;20199;-79
2023/06/21 11:55:39;;;;;;;4.63;3.70;;;26.40;1.00;;;;;;5077436;28;20200;-78
2023/06/21 11:58:07;;;;;;;6.70;3.70;;;26.50;1.00;;;;;;5077541;28;20634;-77
2023/06/21 12:00:33;;;;;;;6.43;4.15;;;26.40;1.00;;;;;;5076331;28;20167;-78
2023/06/21 12:03:01;;;;;;;5.70;3.85;;;26.40;1.00;;;;;;5082626;28;20791;-77
2023/06/21 12:05:26;;;;;;;4.53;3.80;;;26.50;1.00;;;;;;5089888;28;20171;-77
2023/06/21 12:07:52;;;;;;;7.65;4.10;;;26.40;1.00;;;;;;5091904;28;20573;-77
2023/06/21 12:10:17;;;;;;;7.38;5.90;;;26.40;1.00;;;;;;5090367;28;20178;-77
2023/06/21 12:12:43;;;;;;;8.05;5.75;;;26.30;1.00;;;;;;5088656;28;20203;-78
2023/06/21 12:15:09;;;;;;;5.80;4.47;;;26.40;54.00;;;;;;5091242;28;20182;-78
2023/06/21 12:17:34;;;;;;;4.43;4.03;;;26.60;78.40;;;;;;5090234;28;20186;-78
2023/06/21 12:20:05;;;;;;;5.03;3.92;;;26.70;1.00;;;;;;5088454;28;20171;-77
2023/06/21 12:22:30;;;;;;;10.25;3.60;;;26.80;1.00;;;;;;5085805;28;20167;-78
2023/06/21 12:24:56;;;;;;;5.18;3.67;;;26.90;1.00;;;;;;5086973;28;20236;-78
2023/06/21 12:27:22;;;;;;;4.78;3.40;;;27.00;1.00;;;;;;5085226;28;20179;-78
2023/06/21 12:29:49;;;;;;;3.63;3.33;;;27.10;1.00;;;;;;5085880;28;20179;-78
2023/06/21 12:32:16;;;;;;;4.43;3.58;;;27.20;1.00;;;;;;5085133;28;20252;-78
2023/06/21 12:34:42;;;;;;;6.70;4.40;;;27.40;1.00;;;;;;5084874;28;20201;-76
2023/06/21 12:37:07;;;;;;;6.10;4.75;;;27.30;1.00;;;;;;5083982;28;20171;-78
2023/06/21 12:39:37;;;;;;;7.25;4.45;;;27.00;1.00;;;;;;5084657;28;20238;-77
2023/06/21 12:42:05;;;;;;;5.80;3.45;;;27.00;1.00;;;;;;5083652;28;20176;-78
2023/06/21 12:44:31;;;;;;;5.78;3.90;;;26.90;1.00;;;;;;5084511;28;20324;-77
2023/06/21 12:46:59;;;;;;;6.43;4.50;;;27.00;1.00;;;;;;5080401;28;20544;-78
2023/06/21 12:49:26;;;;;;;6.90;4.80;;;27.30;1.00;;;;;;5087641;28;20163;-78